createdAt,value
2018-09-28T00:02:04.610Z,23.03
2018-09-28T00:07:07.711Z,14.03
2018-09-28T00:12:10.804Z,13.53
2018-09-28T00:17:13.869Z,11.97
2018-09-28T00:22:17.001Z,15.47
2018-09-28T00:27:20.151Z,13.33
2018-09-28T00:32:23.295Z,13.97
2018-09-28T00:37:26.468Z,18.30
2018-09-28T00:42:29.644Z,14.77
2018-09-28T00:47:32.968Z,15.07
2018-09-28T00:52:36.112Z,18.50
2018-09-28T00:57:39.267Z,15.10
2018-09-28T01:02:42.412Z,20.67
2018-09-28T01:07:45.596Z,19.67
2018-09-28T01:12:48.773Z,20.87
2018-09-28T01:17:51.939Z,22.47
2018-09-28T01:22:54.997Z,19.60
2018-09-28T01:27:58.248Z,19.97
2018-09-28T01:33:01.343Z,21.20
2018-09-28T01:38:04.535Z,17.43
2018-09-28T01:43:07.719Z,20.77
2018-09-28T01:48:10.836Z,25.03
2018-09-28T01:53:13.918Z,22.70
2018-09-28T01:58:16.998Z,36.13
2018-09-28T02:03:20.067Z,26.70
2018-09-28T02:08:23.131Z,31.93
2018-09-28T02:13:27.110Z,24.07
2018-09-28T02:18:30.250Z,31.30
2018-09-28T02:23:33.327Z,30.50
2018-09-28T02:28:36.659Z,33.10
2018-09-28T02:33:39.732Z,30.70
2018-09-28T02:38:42.792Z,32.90
2018-09-28T02:43:47.251Z,31.57
2018-09-28T02:48:50.399Z,31.67
2018-09-28T02:53:53.444Z,37.33
2018-09-28T02:58:56.527Z,35.90
2018-09-28T03:03:59.639Z,29.20
2018-09-28T03:09:03.119Z,37.83
2018-09-28T03:14:06.676Z,31.17
2018-09-28T03:19:09.874Z,33.60
2018-09-28T03:24:12.972Z,37.30
2018-09-28T03:29:16.040Z,47.80
2018-09-28T03:34:19.120Z,38.17
2018-09-28T03:39:22.292Z,46.73
2018-09-28T03:44:25.392Z,37.57
2018-09-28T03:49:28.475Z,40.93
2018-09-28T03:54:31.721Z,41.23
2018-09-28T03:59:34.781Z,36.70
2018-09-28T04:04:37.854Z,38.47
2018-09-28T04:09:41.007Z,42.23
2018-09-28T04:14:44.135Z,37.90
2018-09-28T04:19:47.309Z,43.33
2018-09-28T04:24:50.388Z,44.17
2018-09-28T04:29:53.524Z,37.63
2018-09-28T04:34:56.751Z,49.67
2018-09-28T04:39:59.804Z,40.57
2018-09-28T04:45:03.002Z,44.20
2018-09-28T04:50:06.111Z,46.90
2018-09-28T04:55:09.229Z,47.63
2018-09-28T05:00:12.384Z,33.57
2018-09-28T05:05:15.442Z,38.10
2018-09-28T05:10:18.596Z,40.60
2018-09-28T05:15:21.727Z,27.03
2018-09-28T05:20:24.928Z,35.67
2018-09-28T05:25:28.231Z,28.80
2018-09-28T05:30:31.404Z,25.30
2018-09-28T05:35:34.524Z,23.73
2018-09-28T05:40:37.859Z,17.53
2018-09-28T05:45:40.961Z,10.17
2018-09-28T05:50:44.021Z,11.93
2018-09-28T05:55:47.110Z,13.03
2018-09-28T06:00:55.656Z,10.87
2018-09-28T06:06:03.673Z,8.80
2018-09-28T06:11:06.852Z,15.43
2018-09-28T06:16:09.989Z,10.50
2018-09-28T06:21:22.646Z,7.33
2018-09-28T06:32:10.779Z,5.50
2018-09-28T06:37:13.875Z,12.43
2018-09-28T06:42:17.025Z,9.67
2018-09-28T06:47:20.099Z,21.47
2018-09-28T06:52:23.200Z,13.00
2018-09-28T06:57:26.253Z,6.27
2018-09-28T07:02:29.348Z,21.20
2018-09-28T07:07:32.432Z,11.83
2018-09-28T07:12:35.524Z,10.13
2018-09-28T07:17:38.646Z,7.27
2018-09-28T07:22:41.761Z,7.80
2018-09-28T07:27:44.876Z,22.33
2018-09-28T07:32:47.979Z,4.87
2018-09-28T07:37:51.043Z,10.93
2018-09-28T07:42:54.103Z,8.00
2018-09-28T07:47:57.231Z,12.10
2018-09-28T07:53:00.266Z,15.60
2018-09-28T07:58:03.388Z,16.40
2018-09-28T08:03:06.524Z,20.17
2018-09-28T08:08:09.567Z,22.23
2018-09-28T08:13:12.657Z,7.83
2018-09-28T08:18:15.752Z,15.70
2018-09-28T08:23:18.905Z,11.17
2018-09-28T08:28:21.991Z,13.13
2018-09-28T08:33:25.096Z,17.70
2018-09-28T08:38:28.185Z,14.63
2018-09-28T08:43:31.323Z,15.20
2018-09-28T08:48:34.492Z,18.43
2018-09-28T08:53:37.563Z,16.00
2018-09-28T08:58:40.714Z,9.87
2018-09-28T09:03:43.855Z,9.97
2018-09-28T09:08:47.004Z,11.57
2018-09-28T09:13:50.072Z,6.07
2018-09-28T09:18:53.259Z,27.80
2018-09-28T09:23:56.470Z,12.63
2018-09-28T09:28:59.548Z,13.83
2018-09-28T09:34:02.625Z,18.43
2018-09-28T09:39:08.046Z,11.00
2018-09-28T09:44:11.136Z,14.77
2018-09-28T09:49:14.255Z,7.87
2018-09-28T09:54:17.333Z,16.53
2018-09-28T09:59:20.421Z,10.87
2018-09-28T10:04:23.656Z,9.73
2018-09-28T10:09:27.371Z,14.43
2018-09-28T10:14:33.792Z,7.40
2018-09-28T10:19:37.042Z,8.77
2018-09-28T10:24:40.095Z,17.60
2018-09-28T10:29:43.166Z,8.60
2018-09-28T10:34:46.338Z,9.30
2018-09-28T10:39:49.505Z,5.37
2018-09-28T10:44:52.543Z,2.50
2018-09-28T10:49:55.603Z,4.63
2018-09-28T10:54:58.679Z,7.30
2018-09-28T11:00:01.889Z,9.00
2018-09-28T11:05:05.132Z,10.77
2018-09-28T11:10:08.397Z,8.50
2018-09-28T11:15:11.513Z,7.67
2018-09-28T11:20:14.590Z,5.40
2018-09-28T11:25:17.679Z,8.67
2018-09-28T11:30:20.739Z,6.47
2018-09-28T11:35:23.808Z,7.03
2018-09-28T11:40:26.944Z,11.23
2018-09-28T11:45:30.178Z,6.50
2018-09-28T11:50:34.059Z,3.23
2018-09-28T11:55:37.656Z,8.17
2018-09-28T12:00:40.933Z,4.83
2018-09-28T12:05:44.772Z,8.80
2018-09-28T12:10:47.927Z,7.50
2018-09-28T12:15:51.200Z,10.60
2018-09-28T12:20:54.163Z,14.70
2018-09-28T12:25:57.316Z,8.53
2018-09-28T12:31:00.479Z,5.63
2018-09-28T12:36:03.626Z,3.37
2018-09-28T12:41:06.853Z,10.57
2018-09-28T12:46:10.095Z,8.50
2018-09-28T12:51:13.496Z,5.60
2018-09-28T12:56:16.632Z,7.90
2018-09-28T13:01:19.904Z,6.53
2018-09-28T13:06:23.213Z,6.40
2018-09-28T13:11:26.354Z,3.50
2018-09-28T13:16:29.474Z,9.00
2018-09-28T13:21:32.607Z,2.53
2018-09-28T13:26:35.743Z,14.30
2018-09-28T13:31:38.907Z,5.83
2018-09-28T13:36:42.153Z,15.03
2018-09-28T13:41:45.287Z,0.70
2018-09-28T13:46:48.463Z,2.43
2018-09-28T13:51:52.455Z,2.63
2018-09-28T13:56:55.570Z,3.57
2018-09-28T14:01:58.671Z,1.67
2018-09-28T14:07:01.862Z,4.03
2018-09-28T14:12:04.928Z,1.83
2018-09-28T14:17:08.106Z,11.13
2018-09-28T14:22:11.564Z,3.63
2018-09-28T14:27:14.687Z,10.90
2018-09-28T14:32:17.798Z,16.10
2018-09-28T14:37:20.924Z,4.13
2018-09-28T14:42:24.088Z,4.43
2018-09-28T14:47:27.233Z,10.13
2018-09-28T14:52:30.577Z,1.93
2018-09-28T14:57:33.699Z,8.63
2018-09-28T15:02:36.939Z,2.10
2018-09-28T15:07:40.198Z,4.53
2018-09-28T15:12:43.221Z,4.60
2018-09-28T15:17:46.392Z,3.53
2018-09-28T15:22:49.499Z,6.07
2018-09-28T15:27:52.583Z,6.57
2018-09-28T15:32:55.697Z,7.03
2018-09-28T15:37:58.815Z,4.07
2018-09-28T15:43:01.899Z,8.40
2018-09-28T15:48:05.093Z,13.10
2018-09-28T15:53:08.187Z,2.50
2018-09-28T15:58:11.364Z,3.33
2018-09-28T16:03:14.423Z,5.03
2018-09-28T16:08:17.504Z,8.03
2018-09-28T16:13:20.584Z,6.10
2018-09-28T16:18:23.668Z,8.43
2018-09-28T16:23:26.714Z,7.87
2018-09-28T16:28:31.607Z,4.50
2018-09-28T16:33:35.335Z,7.07
2018-09-28T16:38:38.745Z,6.37
2018-09-28T16:43:42.712Z,9.40
2018-09-28T16:48:45.844Z,9.63
2018-09-28T16:53:49.264Z,3.50
2018-09-28T16:58:52.439Z,9.77
2018-09-28T17:03:55.647Z,4.27
2018-09-28T17:08:58.784Z,9.73
2018-09-28T17:14:01.824Z,3.90
2018-09-28T17:19:04.996Z,1.63
2018-09-28T17:24:08.123Z,9.70
2018-09-28T17:29:11.506Z,12.67
2018-09-28T17:34:14.789Z,5.30
2018-09-28T17:39:18.891Z,6.20
2018-09-28T17:44:22.271Z,3.60
2018-09-28T17:49:27.429Z,4.33
2018-09-28T17:54:31.857Z,8.00
2018-09-28T17:59:35.777Z,1.90
2018-09-28T18:04:39.203Z,4.43
2018-09-28T18:09:43.118Z,14.83
2018-09-28T18:14:46.496Z,2.73
2018-09-28T18:19:49.873Z,6.43
2018-09-28T18:24:53.051Z,3.67
2018-09-28T18:29:56.195Z,11.43
2018-09-28T18:34:59.257Z,2.50
2018-09-28T18:40:02.391Z,13.33
2018-09-28T18:45:05.677Z,6.20
2018-09-28T18:50:08.876Z,9.27
2018-09-28T18:55:12.842Z,7.17
2018-09-28T19:00:15.979Z,15.60
2018-09-28T19:05:19.439Z,5.37
2018-09-28T19:10:23.345Z,6.83
2018-09-28T19:15:26.724Z,8.23
2018-09-28T19:20:30.151Z,5.77
2018-09-28T19:25:34.731Z,11.80
2018-09-28T19:30:38.969Z,4.10
2018-09-28T19:35:42.532Z,7.97
2018-09-28T19:40:45.649Z,6.63
2018-09-28T19:45:48.871Z,5.43
2018-09-28T19:50:52.057Z,8.83
2018-09-28T19:55:55.568Z,8.57
2018-09-28T20:00:58.687Z,5.63
2018-09-28T20:06:01.823Z,15.73
2018-09-28T20:11:05.191Z,6.43
2018-09-28T20:16:08.468Z,7.00
2018-09-28T20:21:12.076Z,2.30
2018-09-28T20:26:15.179Z,4.03
2018-09-28T20:31:18.247Z,7.83
2018-09-28T20:36:21.299Z,4.70
2018-09-28T20:41:24.415Z,4.20
2018-09-28T20:46:27.762Z,9.90
2018-09-28T20:51:30.945Z,6.00
2018-09-28T20:56:34.028Z,8.50
2018-09-28T21:01:37.093Z,6.13
2018-09-28T21:06:40.150Z,6.03
2018-09-28T21:11:43.232Z,10.30
2018-09-28T21:16:46.326Z,7.13
2018-09-28T21:21:49.379Z,5.53
2018-09-28T21:26:52.444Z,6.63
2018-09-28T21:31:55.579Z,5.40
2018-09-28T21:36:58.648Z,6.17
2018-09-28T21:42:01.726Z,22.63
2018-09-28T21:47:04.844Z,15.50
2018-09-28T21:52:07.956Z,4.53
2018-09-28T21:57:11.071Z,6.00
2018-09-28T22:02:14.172Z,7.77
2018-09-28T22:07:17.283Z,4.97
2018-09-28T22:12:20.383Z,10.93
2018-09-28T22:17:23.481Z,4.93
2018-09-28T22:22:26.544Z,5.30
2018-09-28T22:27:29.612Z,11.50
2018-09-28T22:32:32.731Z,10.33
2018-09-28T22:37:35.825Z,32.03
2018-09-28T22:42:38.930Z,29.37
2018-09-28T22:47:42.026Z,13.33
2018-09-28T22:52:45.180Z,6.80
2018-09-28T22:57:48.264Z,4.63
2018-09-28T23:02:51.363Z,4.70
2018-09-28T23:07:54.487Z,5.10
2018-09-28T23:12:57.611Z,14.57
2018-09-28T23:18:00.692Z,6.70
2018-09-28T23:23:03.780Z,1.83
2018-09-28T23:28:06.882Z,3.00
2018-09-28T23:33:09.980Z,6.03
2018-09-28T23:38:13.143Z,6.23
2018-09-28T23:43:16.225Z,5.90
2018-09-28T23:48:19.303Z,7.27
2018-09-28T23:53:22.407Z,5.93
2018-09-28T23:58:25.558Z,4.70
